logo dgac
Miércoles 17 de Enero del 2018
Buscar por aerodromo o helipuerto
Ingrese nombre de aeródromo, localidad o designador OACI:
TAF: TAF SCRD 171622Z 1718/1806 33008KT CAVOK TX25/1720Z TN14/1806Z BECMG 1803/1805 VRB03KT
TAF del 17/01/2018 a las 16:22 UTC
Período de validez: desde el 17 a las 18:00 UTC hasta el 18 a las 06:00 UTC
Viento: dirección 330 grados, velocidad 8 nudos
Visibilidad: 10 km o más,
    sin nubes bajo los 5.000 pies o bajo del MSA (Mínimo de Seguridad del Aeródromo),
    sin cumulonimbus, y sin fenómenos de tiempo significativo en el aeródromo o alrededores
Temperatura máxima: 25ºC el 17 a las 20:00 UTC
Temperatura mínima: 14ºC el 18 a las 06:00 UTC
Se espera un cambio entre las 03:00 UTC del 18 y las 05:00 UTC del 18, :
Viento: dirección variable, velocidad 3 nudos